Hovedside
METAR-TAF:

METAR-TAF

Lufthavner :

Vientiane, Laos

breddegrad: 17-57N, lengdegrad: 102-34E, høyde over havet: 171 m

Gjeldene værobservasjon

Denne rapporten ble laget for 2 timer og 57 minutter siden, klokken 16:30 UTC
Flau vind
Temperatur 22°C
Luftfuktighet 100%
Trykk 1014 hPa
Sikt: 3000 m
dis

METAR: VLVT 151630Z 00000KT 3000 BR NSC 22/22 Q1014 NOSIG

Tid: 02:27 (19:27 UTC)

Varsel

Denne rapporten ble laget for 2 timer og 27 minutter siden, klokken 17:00 UTC
Varsel gyldig fra 15. klokken 18 UTC til 16. klokken 18 UTC
Vind 6 kt fra Øst
Sikt: 8000 m
Spredte skyer i en høyde av 2000 ft
Spredte skyer i en høyde av 5000 ft

TAF: VLVT 151700Z 1518/1618 09006KT 8000 SCT020 SCT050

Værobservasjoner og værvarsel for over 4000 flyplasser (METAR- og TAF-rapporter).

Tilgjengelige stasjoner er representert av de røde og gule prikkene på kartet.

Hold musepekeren over prikken for å se navnet på stasjonen.

Klikk så for å se værobservasjoner og -varsler.

For å forandre kartet kan du klikke på den grønne knappen med svart kryss for å zoome inn, på den grønne knappen med strek for å zoome ut, eller på de grønne pilene for å se tilstøtende kart.


METAR-TAF: